createdAt,value
2016-12-29T00:00:24.967Z,-0.67
2016-12-29T00:01:06.669Z,-0.69
2016-12-29T00:01:48.440Z,-0.65
2016-12-29T00:02:30.180Z,-0.67
2016-12-29T00:03:11.591Z,-0.62
2016-12-29T00:05:26.844Z,-0.7
2016-12-29T00:06:08.479Z,-0.69
2016-12-29T00:07:47.415Z,-0.67
2016-12-29T00:08:29.086Z,-0.67
2016-12-29T00:09:10.709Z,-0.61
2016-12-29T00:09:52.448Z,-0.61
2016-12-29T00:10:34.228Z,-0.6
2016-12-29T00:11:15.910Z,-0.58
2016-12-29T00:11:57.679Z,-0.6
2016-12-29T00:12:39.454Z,-0.64
2016-12-29T00:13:21.137Z,-0.61
2016-12-29T00:14:02.770Z,-0.65
2016-12-29T00:15:42.747Z,-0.61
2016-12-29T00:17:37.379Z,-0.55
2016-12-29T00:18:19.116Z,-0.64
2016-12-29T00:19:00.922Z,-0.64
2016-12-29T00:19:42.511Z,-0.64
2016-12-29T00:21:21.600Z,-0.57
2016-12-29T00:22:03.350Z,-0.58
2016-12-29T00:22:45.093Z,-0.55
2016-12-29T00:23:26.750Z,-0.58
2016-12-29T00:24:08.536Z,-0.57
2016-12-29T00:24:50.270Z,-0.57
2016-12-29T00:25:32.063Z,-0.52
2016-12-29T00:26:13.790Z,-0.55
2016-12-29T00:26:55.528Z,-0.58
2016-12-29T00:27:37.246Z,-0.52
2016-12-29T00:28:18.903Z,-0.58
2016-12-29T00:30:18.947Z,-0.57
2016-12-29T00:31:00.603Z,-0.62
2016-12-29T00:32:39.638Z,-0.67
2016-12-29T00:34:54.964Z,-0.61
2016-12-29T00:35:36.470Z,-0.67
2016-12-29T00:36:18.155Z,-0.69
2016-12-29T00:38:07.415Z,-0.62
2016-12-29T00:40:02.058Z,-0.7
2016-12-29T00:40:43.752Z,-0.6
2016-12-29T00:41:25.486Z,-0.61
2016-12-29T00:43:25.325Z,-0.64
2016-12-29T00:44:07.018Z,-0.62
2016-12-29T00:44:48.718Z,-0.62
2016-12-29T00:45:30.515Z,-0.61
2016-12-29T00:46:12.027Z,-0.64
2016-12-29T00:46:53.779Z,-0.65
2016-12-29T00:47:35.485Z,-0.61
2016-12-29T00:48:17.276Z,-0.55
2016-12-29T00:48:58.965Z,-0.65
2016-12-29T00:49:40.708Z,-0.65
2016-12-29T00:50:22.401Z,-0.62
2016-12-29T00:51:04.005Z,-0.61
2016-12-29T00:51:45.325Z,-0.65
2016-12-29T00:53:24.413Z,-0.57
2016-12-29T00:54:06.213Z,-0.62
2016-12-29T00:54:47.862Z,-0.62
2016-12-29T00:55:29.638Z,-0.58
2016-12-29T00:56:11.395Z,-0.64
2016-12-29T00:56:53.154Z,-0.64
2016-12-29T00:57:34.839Z,-0.55
2016-12-29T00:58:16.604Z,-0.73
2016-12-29T00:58:58.270Z,-0.65
2016-12-29T00:59:40.055Z,-0.65
2016-12-29T01:00:21.861Z,-0.67
2016-12-29T01:02:21.812Z,-0.62
2016-12-29T01:03:03.428Z,-0.72
2016-12-29T01:05:18.675Z,-0.7
2016-12-29T01:06:00.473Z,-0.61
2016-12-29T01:06:41.545Z,-0.62
2016-12-29T01:07:23.255Z,-0.65
2016-12-29T01:08:04.901Z,-0.62
2016-12-29T01:08:46.296Z,-0.6
2016-12-29T01:09:27.723Z,-0.62
2016-12-29T01:10:08.861Z,-0.65
2016-12-29T01:10:50.575Z,-0.62
2016-12-29T01:11:31.968Z,-0.69
2016-12-29T01:12:13.414Z,-0.82
2016-12-29T01:12:54.961Z,-0.82
2016-12-29T01:13:36.768Z,-0.79
2016-12-29T01:14:18.269Z,-0.83
2016-12-29T01:14:59.985Z,-0.76
2016-12-29T01:15:41.094Z,-0.76
2016-12-29T01:16:22.871Z,-0.73
2016-12-29T01:17:04.356Z,-0.73
2016-12-29T01:17:45.940Z,-0.78
2016-12-29T01:18:27.601Z,-0.73
2016-12-29T01:19:09.359Z,-0.82
2016-12-29T01:19:50.879Z,-0.85
2016-12-29T01:20:32.601Z,-0.82
2016-12-29T01:21:14.327Z,-0.82
2016-12-29T01:21:55.967Z,-0.86
2016-12-29T01:22:37.549Z,-0.83
2016-12-29T01:23:19.208Z,-0.82
2016-12-29T01:24:00.992Z,-0.85
2016-12-29T01:24:42.708Z,-0.85
2016-12-29T01:25:24.467Z,-0.95
2016-12-29T01:26:06.236Z,-0.86
2016-12-29T01:26:48.011Z,-0.85
2016-12-29T01:27:29.781Z,-0.86
2016-12-29T01:28:11.489Z,-0.85
2016-12-29T01:28:53.223Z,-0.79
2016-12-29T01:29:34.974Z,-0.94
2016-12-29T01:30:16.730Z,-0.83
2016-12-29T01:30:58.497Z,-0.97
2016-12-29T01:31:40.257Z,-0.85
2016-12-29T01:32:22.052Z,-0.86
2016-12-29T01:33:03.724Z,-0.94
2016-12-29T01:33:45.379Z,-0.99
2016-12-29T01:35:40.023Z,-0.95
2016-12-29T01:36:21.457Z,-0.85
2016-12-29T01:37:03.236Z,-0.94
2016-12-29T01:37:44.519Z,-0.94
2016-12-29T01:38:26.037Z,-0.97
2016-12-29T01:40:04.985Z,-0.97
2016-12-29T01:40:46.688Z,-1.04
2016-12-29T01:41:28.378Z,-0.99
2016-12-29T01:42:10.132Z,-0.97
2016-12-29T01:42:51.950Z,-0.98
2016-12-29T01:43:33.335Z,-0.95
2016-12-29T01:44:15.001Z,-0.94
2016-12-29T01:44:56.732Z,-0.95
2016-12-29T01:45:38.403Z,-1.01
2016-12-29T01:47:53.759Z,-1.1
2016-12-29T01:48:35.358Z,-1.15
2016-12-29T01:49:16.982Z,-1.1
2016-12-29T01:49:58.620Z,-1.17
2016-12-29T01:50:40.178Z,-1.07
2016-12-29T01:52:19.237Z,-1.19
2016-12-29T01:53:00.949Z,-1.1
2016-12-29T01:53:42.547Z,-1.22
2016-12-29T01:54:24.308Z,-1.16
2016-12-29T01:55:06.043Z,-1.2
2016-12-29T01:55:47.706Z,-1.17
2016-12-29T01:56:29.458Z,-1.2
2016-12-29T01:57:11.056Z,-1.22
2016-12-29T01:57:52.848Z,-1.2
2016-12-29T02:00:07.690Z,-1.23
2016-12-29T02:00:49.316Z,-1.33
2016-12-29T02:01:30.701Z,-1.27
2016-12-29T02:02:11.486Z,-1.23
2016-12-29T02:02:52.022Z,-1.37
2016-12-29T02:03:32.525Z,-1.31
2016-12-29T02:04:13.063Z,-1.34
2016-12-29T02:04:53.576Z,-1.34
2016-12-29T02:05:34.107Z,-1.4
2016-12-29T02:06:14.651Z,-1.45
2016-12-29T02:06:55.158Z,-1.43
2016-12-29T02:07:35.694Z,-1.35
2016-12-29T02:08:16.218Z,-1.4
2016-12-29T02:08:56.756Z,-1.4
2016-12-29T02:09:37.253Z,-1.38
2016-12-29T02:10:17.773Z,-1.33
2016-12-29T02:10:58.296Z,-1.33
2016-12-29T02:11:38.810Z,-1.33
2016-12-29T02:12:19.346Z,-1.41
2016-12-29T02:12:59.866Z,-1.3
2016-12-29T02:13:40.397Z,-1.33
2016-12-29T02:14:20.942Z,-1.28
2016-12-29T02:15:01.469Z,-1.43
2016-12-29T02:15:41.975Z,-1.35
2016-12-29T02:16:22.515Z,-1.43
2016-12-29T02:17:03.046Z,-1.33
2016-12-29T02:17:43.559Z,-1.41
2016-12-29T02:18:24.074Z,-1.41
2016-12-29T02:19:04.601Z,-1.4
2016-12-29T02:19:45.133Z,-1.33
2016-12-29T02:20:25.669Z,-1.37
2016-12-29T02:21:06.199Z,-1.38
2016-12-29T02:21:46.720Z,-1.38
2016-12-29T02:22:27.245Z,-1.38
2016-12-29T02:23:07.760Z,-1.51
2016-12-29T02:23:48.294Z,-1.49
2016-12-29T02:24:28.796Z,-1.43
2016-12-29T02:25:09.331Z,-1.48
2016-12-29T02:25:49.831Z,-1.48
2016-12-29T02:26:30.353Z,-1.43
2016-12-29T02:27:10.850Z,-1.52
2016-12-29T02:27:51.350Z,-1.49
2016-12-29T02:28:31.878Z,-1.43
2016-12-29T02:29:12.410Z,-1.52
2016-12-29T02:29:52.919Z,-1.54
2016-12-29T02:30:33.449Z,-1.52
2016-12-29T02:31:13.997Z,-1.52
2016-12-29T02:31:54.476Z,-1.51
2016-12-29T02:32:35.004Z,-1.58
2016-12-29T02:33:15.526Z,-1.58
2016-12-29T02:33:56.045Z,-1.51
2016-12-29T02:34:36.581Z,-1.56
2016-12-29T02:35:17.115Z,-1.51
2016-12-29T02:35:57.612Z,-1.52
2016-12-29T02:36:38.134Z,-1.55
2016-12-29T02:37:18.656Z,-1.55
2016-12-29T02:37:59.174Z,-1.54
2016-12-29T02:38:39.688Z,-1.55
2016-12-29T02:39:20.196Z,-1.51
2016-12-29T02:40:00.713Z,-1.55
2016-12-29T02:40:41.208Z,-1.52
2016-12-29T02:41:21.728Z,-1.54
2016-12-29T02:42:02.276Z,-1.59
2016-12-29T02:42:42.796Z,-1.64
2016-12-29T02:43:23.310Z,-1.64
2016-12-29T02:44:03.833Z,-1.59
2016-12-29T02:44:44.343Z,-1.54
2016-12-29T02:45:24.840Z,-1.55
2016-12-29T02:46:05.364Z,-1.55
2016-12-29T02:46:45.878Z,-1.55
2016-12-29T02:47:26.421Z,-1.54
2016-12-29T02:48:06.967Z,-1.55
2016-12-29T02:48:47.463Z,-1.55
2016-12-29T02:49:27.974Z,-1.49
2016-12-29T02:50:08.492Z,-1.52
2016-12-29T02:50:49.012Z,-1.52
2016-12-29T02:51:29.514Z,-1.52
2016-12-29T02:52:10.026Z,-1.49
2016-12-29T02:52:50.536Z,-1.54
2016-12-29T02:53:31.063Z,-1.52
2016-12-29T02:54:11.566Z,-1.56
2016-12-29T02:54:52.076Z,-1.58
2016-12-29T02:55:32.599Z,-1.55
2016-12-29T02:56:13.124Z,-1.62
2016-12-29T02:56:53.633Z,-1.62
2016-12-29T02:57:34.160Z,-1.64
2016-12-29T02:58:14.680Z,-1.61
2016-12-29T02:58:55.204Z,-1.66
2016-12-29T02:59:35.711Z,-1.69
2016-12-29T03:00:16.234Z,-1.66
2016-12-29T03:00:56.739Z,-1.62
2016-12-29T03:01:37.264Z,-1.62
2016-12-29T03:02:17.781Z,-1.64
2016-12-29T03:02:58.309Z,-1.66
2016-12-29T03:03:38.804Z,-1.66
2016-12-29T03:04:19.387Z,-1.62
2016-12-29T03:04:59.923Z,-1.67
2016-12-29T03:05:40.454Z,-1.72
2016-12-29T03:06:21.002Z,-1.66
2016-12-29T03:07:01.541Z,-1.66
2016-12-29T03:07:42.053Z,-1.73
2016-12-29T03:08:22.563Z,-1.72
2016-12-29T03:09:03.079Z,-1.72
2016-12-29T03:09:43.589Z,-1.73
2016-12-29T03:10:24.108Z,-1.62
2016-12-29T03:11:04.626Z,-1.69
2016-12-29T03:11:45.130Z,-1.66
2016-12-29T03:12:25.618Z,-1.69
2016-12-29T03:13:06.138Z,-1.66
2016-12-29T03:13:46.679Z,-1.73
2016-12-29T03:14:27.193Z,-1.66
2016-12-29T03:15:07.716Z,-1.67
2016-12-29T03:15:48.222Z,-1.69
2016-12-29T03:16:28.751Z,-1.76
2016-12-29T03:17:09.277Z,-1.7
2016-12-29T03:17:49.799Z,-1.69
2016-12-29T03:18:30.333Z,-1.73
2016-12-29T03:19:10.818Z,-1.69
2016-12-29T03:19:51.325Z,-1.7
2016-12-29T03:20:31.847Z,-1.62
2016-12-29T03:21:12.367Z,-1.67
2016-12-29T03:21:52.865Z,-1.58
2016-12-29T03:22:33.386Z,-1.62
2016-12-29T03:23:13.903Z,-1.66
2016-12-29T03:23:54.412Z,-1.59
2016-12-29T03:24:34.937Z,-1.58
2016-12-29T03:25:15.475Z,-1.58
2016-12-29T03:25:55.998Z,-1.58
2016-12-29T03:26:36.492Z,-1.59
2016-12-29T03:27:16.997Z,-1.55
2016-12-29T03:27:57.508Z,-1.59
2016-12-29T03:28:38.016Z,-1.59
2016-12-29T03:29:18.520Z,-1.59
2016-12-29T03:29:59.031Z,-1.59
2016-12-29T03:30:39.551Z,-1.52
2016-12-29T03:31:20.072Z,-1.59
2016-12-29T03:32:00.608Z,-1.61
2016-12-29T03:32:41.121Z,-1.62
2016-12-29T03:33:21.630Z,-1.62
2016-12-29T03:34:02.144Z,-1.58
2016-12-29T03:34:42.692Z,-1.66
2016-12-29T03:35:23.212Z,-1.66
2016-12-29T03:36:03.734Z,-1.66
2016-12-29T03:36:44.258Z,-1.59
2016-12-29T03:37:24.796Z,-1.66
2016-12-29T03:38:05.315Z,-1.66
2016-12-29T03:38:45.836Z,-1.67
2016-12-29T03:39:26.372Z,-1.66
2016-12-29T03:40:06.909Z,-1.67
2016-12-29T03:40:47.420Z,-1.61
2016-12-29T03:41:27.956Z,-1.67
2016-12-29T03:42:08.458Z,-1.73
2016-12-29T03:42:48.981Z,-1.69
2016-12-29T03:43:29.469Z,-1.72
2016-12-29T03:44:09.973Z,-1.66
2016-12-29T03:44:50.495Z,-1.7
2016-12-29T03:45:31.029Z,-1.66
2016-12-29T03:46:11.528Z,-1.64
2016-12-29T03:46:52.032Z,-1.61
2016-12-29T03:47:32.548Z,-1.62
2016-12-29T03:48:13.069Z,-1.66
2016-12-29T03:48:53.587Z,-1.66
2016-12-29T03:49:34.111Z,-1.61
2016-12-29T03:50:14.674Z,-1.54
2016-12-29T03:50:55.160Z,-1.48
2016-12-29T03:51:35.686Z,-1.54
2016-12-29T03:52:16.190Z,-1.55
2016-12-29T03:52:56.723Z,-1.49
2016-12-29T03:53:37.261Z,-1.54
2016-12-29T03:54:17.773Z,-1.51
2016-12-29T03:54:58.310Z,-1.49
2016-12-29T03:55:38.816Z,-1.49
2016-12-29T03:56:19.343Z,-1.48
2016-12-29T03:56:59.886Z,-1.51
2016-12-29T03:57:40.402Z,-1.48
2016-12-29T03:58:20.924Z,-1.41
2016-12-29T03:59:01.416Z,-1.46
2016-12-29T03:59:41.939Z,-1.49
2016-12-29T04:00:22.469Z,-1.45
2016-12-29T04:01:03.001Z,-1.49
2016-12-29T04:01:43.528Z,-1.4
2016-12-29T04:02:24.053Z,-1.46
2016-12-29T04:03:04.581Z,-1.45
2016-12-29T04:03:45.103Z,-1.52
2016-12-29T04:04:25.681Z,-1.52
2016-12-29T04:05:06.220Z,-1.54
2016-12-29T04:05:46.728Z,-1.52
2016-12-29T04:06:27.248Z,-1.55
2016-12-29T04:07:07.771Z,-1.54
2016-12-29T04:07:48.277Z,-1.55
2016-12-29T04:08:28.792Z,-1.52
2016-12-29T04:09:09.313Z,-1.52
2016-12-29T04:09:49.818Z,-1.55
2016-12-29T04:10:30.334Z,-1.54
2016-12-29T04:11:10.840Z,-1.56
2016-12-29T04:11:51.346Z,-1.56
2016-12-29T04:12:31.845Z,-1.56
2016-12-29T04:13:12.372Z,-1.58
2016-12-29T04:13:52.897Z,-1.55
2016-12-29T04:14:33.417Z,-1.66
2016-12-29T04:15:13.929Z,-1.64
2016-12-29T04:15:54.449Z,-1.64
2016-12-29T04:16:34.967Z,-1.61
2016-12-29T04:17:15.501Z,-1.64
2016-12-29T04:17:56.015Z,-1.58
2016-12-29T04:18:36.530Z,-1.66
2016-12-29T04:19:17.041Z,-1.73
2016-12-29T04:19:57.544Z,-1.67
2016-12-29T04:20:38.043Z,-1.66
2016-12-29T04:21:18.564Z,-1.72
2016-12-29T04:21:59.092Z,-1.67
2016-12-29T04:22:39.626Z,-1.73
2016-12-29T04:23:20.142Z,-1.67
2016-12-29T04:24:00.655Z,-1.82
2016-12-29T04:24:41.194Z,-1.74
2016-12-29T04:25:21.726Z,-1.82
2016-12-29T04:26:02.250Z,-1.76
2016-12-29T04:26:42.771Z,-1.77
2016-12-29T04:27:23.335Z,-1.7
2016-12-29T04:29:02.143Z,-1.79
2016-12-29T04:29:42.664Z,-1.74
2016-12-29T04:30:23.192Z,-1.76
2016-12-29T04:31:03.735Z,-1.8
2016-12-29T04:31:44.258Z,-1.76
2016-12-29T04:32:24.794Z,-1.72
2016-12-29T04:33:05.304Z,-1.77
2016-12-29T04:33:45.810Z,-1.74
2016-12-29T04:34:26.325Z,-1.73
2016-12-29T04:35:06.819Z,-1.82
2016-12-29T04:35:47.315Z,-1.7
2016-12-29T04:36:27.818Z,-1.69
2016-12-29T04:37:08.327Z,-1.73
2016-12-29T04:37:48.836Z,-1.77
2016-12-29T04:38:29.347Z,-1.73
2016-12-29T04:39:09.864Z,-1.61
2016-12-29T04:39:50.401Z,-1.61
2016-12-29T04:40:30.889Z,-1.62
2016-12-29T04:41:11.408Z,-1.62
2016-12-29T04:41:51.920Z,-1.61
2016-12-29T04:42:32.449Z,-1.59
2016-12-29T04:43:12.952Z,-1.66
2016-12-29T04:43:53.485Z,-1.51
2016-12-29T04:44:34.007Z,-1.54
2016-12-29T04:45:14.526Z,-1.54
2016-12-29T04:45:55.146Z,-1.55
2016-12-29T04:46:35.658Z,-1.49
2016-12-29T04:47:16.194Z,-1.55
2016-12-29T04:47:56.715Z,-1.52
2016-12-29T04:48:37.242Z,-1.48
2016-12-29T04:49:17.762Z,-1.52
2016-12-29T04:49:58.293Z,-1.56
2016-12-29T04:50:38.808Z,-1.56
2016-12-29T04:51:19.337Z,-1.49
2016-12-29T04:51:59.862Z,-1.54
2016-12-29T04:52:40.358Z,-1.52
2016-12-29T04:53:20.880Z,-1.56
2016-12-29T04:54:01.393Z,-1.62
2016-12-29T04:54:41.903Z,-1.62
2016-12-29T04:55:22.411Z,-1.64
2016-12-29T04:56:02.920Z,-1.64
2016-12-29T04:56:43.450Z,-1.66
2016-12-29T04:57:23.950Z,-1.67
2016-12-29T04:58:04.464Z,-1.55
2016-12-29T04:58:44.972Z,-1.61
2016-12-29T04:59:25.491Z,-1.62
2016-12-29T05:00:06.024Z,-1.69
2016-12-29T05:00:46.545Z,-1.61
2016-12-29T05:01:27.064Z,-1.61
2016-12-29T05:02:07.574Z,-1.69
2016-12-29T05:02:48.088Z,-1.66
2016-12-29T05:03:28.599Z,-1.7
2016-12-29T05:04:09.111Z,-1.67
2016-12-29T05:04:49.613Z,-1.7
2016-12-29T05:05:30.131Z,-1.76
2016-12-29T05:06:10.674Z,-1.72
2016-12-29T05:06:51.186Z,-1.73
2016-12-29T05:07:31.692Z,-1.62
2016-12-29T05:08:12.216Z,-1.61
2016-12-29T05:08:52.740Z,-1.7
2016-12-29T05:09:33.259Z,-1.67
2016-12-29T05:10:13.751Z,-1.64
2016-12-29T05:10:54.270Z,-1.62
2016-12-29T05:11:34.792Z,-1.62
2016-12-29T05:12:15.318Z,-1.62
2016-12-29T05:12:55.849Z,-1.62
2016-12-29T05:13:36.382Z,-1.62
2016-12-29T05:14:16.907Z,-1.61
2016-12-29T05:14:57.451Z,-1.66
2016-12-29T05:15:37.971Z,-1.66
2016-12-29T05:16:18.501Z,-1.66
2016-12-29T05:16:59.027Z,-1.64
2016-12-29T05:17:39.546Z,-1.7
2016-12-29T05:18:20.078Z,-1.62
2016-12-29T05:19:00.614Z,-1.67
2016-12-29T05:19:41.129Z,-1.66
2016-12-29T05:20:21.659Z,-1.58
2016-12-29T05:21:02.318Z,-1.59
2016-12-29T05:21:42.849Z,-1.58
2016-12-29T05:22:23.378Z,-1.66
2016-12-29T05:23:03.907Z,-1.52
2016-12-29T05:23:44.426Z,-1.54
2016-12-29T05:24:24.983Z,-1.58
2016-12-29T05:25:05.491Z,-1.48
2016-12-29T05:25:46.017Z,-1.49
2016-12-29T05:26:26.519Z,-1.49
2016-12-29T05:27:07.034Z,-1.49
2016-12-29T05:27:47.541Z,-1.46
2016-12-29T05:28:28.053Z,-1.45
2016-12-29T05:29:08.570Z,-1.49
2016-12-29T05:29:49.304Z,-1.49
2016-12-29T05:30:29.979Z,-1.45
2016-12-29T05:31:10.560Z,-1.41
2016-12-29T05:31:51.099Z,-1.46
2016-12-29T05:32:31.615Z,-1.48
2016-12-29T05:33:12.130Z,-1.45
2016-12-29T05:33:52.648Z,-1.51
2016-12-29T05:34:33.174Z,-1.38
2016-12-29T05:35:13.685Z,-1.41
2016-12-29T05:35:54.202Z,-1.34
2016-12-29T05:36:34.741Z,-1.35
2016-12-29T05:37:15.269Z,-1.38
2016-12-29T05:37:55.804Z,-1.3
2016-12-29T05:38:36.315Z,-1.4
2016-12-29T05:39:16.829Z,-1.33
2016-12-29T05:39:57.350Z,-1.37
2016-12-29T05:40:37.867Z,-1.3
2016-12-29T05:41:18.399Z,-1.27
2016-12-29T05:41:58.956Z,-1.25
2016-12-29T05:42:39.451Z,-1.28
2016-12-29T05:43:19.971Z,-1.25
2016-12-29T05:44:00.439Z,-1.25
2016-12-29T05:44:40.975Z,-1.3
2016-12-29T05:45:21.477Z,-1.25
2016-12-29T05:46:02.057Z,-1.27
2016-12-29T05:46:42.558Z,-1.22
2016-12-29T05:47:23.072Z,-1.27
2016-12-29T05:48:03.579Z,-1.22
2016-12-29T05:48:44.104Z,-1.19
2016-12-29T05:49:24.632Z,-1.17
2016-12-29T05:50:05.149Z,-1.2
2016-12-29T05:50:45.645Z,-1.17
2016-12-29T05:51:26.168Z,-1.15
2016-12-29T05:52:06.692Z,-1.13
2016-12-29T05:52:47.213Z,-1.2
2016-12-29T05:53:27.738Z,-1.27
2016-12-29T05:54:08.275Z,-1.19
2016-12-29T05:54:48.806Z,-1.15
2016-12-29T05:55:29.345Z,-1.09
2016-12-29T05:56:09.866Z,-1.22
2016-12-29T05:56:50.371Z,-1.2
2016-12-29T05:57:30.895Z,-1.16
2016-12-29T05:58:11.411Z,-1.16
2016-12-29T05:58:52.226Z,-1.12
2016-12-29T05:59:32.835Z,-1.16
2016-12-29T06:00:13.337Z,-1.13
2016-12-29T06:00:53.857Z,-1.09
2016-12-29T06:01:34.375Z,-1.07
2016-12-29T06:02:14.912Z,-1.07
2016-12-29T06:02:55.442Z,-1.1
2016-12-29T06:03:35.977Z,-1.04
2016-12-29T06:04:16.783Z,-1.07
2016-12-29T06:04:57.304Z,-1.07
2016-12-29T06:05:37.837Z,-1.13
2016-12-29T06:06:18.359Z,-1.09
2016-12-29T06:06:58.996Z,-1.09
2016-12-29T06:07:39.510Z,-1.04
2016-12-29T06:08:20.047Z,-1.1
2016-12-29T06:09:00.568Z,-1.07
2016-12-29T06:09:41.080Z,-1.1
2016-12-29T06:10:21.601Z,-1.04
2016-12-29T06:11:02.122Z,-1.15
2016-12-29T06:11:42.644Z,-1.05
2016-12-29T06:12:23.174Z,-0.98
2016-12-29T06:13:03.702Z,-0.95
2016-12-29T06:13:44.230Z,-1.07
2016-12-29T06:14:24.761Z,-1.05
2016-12-29T06:15:05.299Z,-1.05
2016-12-29T06:15:45.808Z,-1.07
2016-12-29T06:16:26.332Z,-0.98
2016-12-29T06:17:06.870Z,-0.94
2016-12-29T06:17:47.381Z,-0.99
2016-12-29T06:18:27.910Z,-0.95
2016-12-29T06:19:08.441Z,-0.97
2016-12-29T06:19:48.966Z,-0.99
2016-12-29T06:20:29.485Z,-1.02
2016-12-29T06:21:10.021Z,-1.02
2016-12-29T06:21:50.525Z,-1.01
2016-12-29T06:22:31.027Z,-0.86
2016-12-29T06:23:11.522Z,-0.97
2016-12-29T06:23:52.023Z,-0.98
2016-12-29T06:24:32.527Z,-0.99
2016-12-29T06:25:13.043Z,-0.92
2016-12-29T06:25:53.558Z,-0.99
2016-12-29T06:26:34.084Z,-0.98
2016-12-29T06:27:14.619Z,-0.94
2016-12-29T06:27:55.143Z,-0.95
2016-12-29T06:28:35.651Z,-0.91
2016-12-29T06:29:16.418Z,-0.86
2016-12-29T06:29:57.014Z,-0.86
2016-12-29T06:30:37.753Z,-0.99
2016-12-29T06:31:18.261Z,-0.98
2016-12-29T06:31:58.914Z,-0.99
2016-12-29T06:32:39.686Z,-0.82
2016-12-29T06:33:20.177Z,-0.92
2016-12-29T06:34:00.693Z,-0.79
2016-12-29T06:34:41.206Z,-0.82
2016-12-29T06:35:21.722Z,-0.85
2016-12-29T06:36:02.245Z,-0.86
2016-12-29T06:36:42.763Z,-0.85
2016-12-29T06:37:23.341Z,-0.79
2016-12-29T06:38:03.856Z,-0.85
2016-12-29T06:38:44.367Z,-0.76
2016-12-29T06:39:24.880Z,-0.82
2016-12-29T06:40:05.360Z,-0.85
2016-12-29T06:40:45.888Z,-0.82
2016-12-29T06:41:26.416Z,-0.82
2016-12-29T06:42:06.986Z,-0.91
2016-12-29T06:42:47.516Z,-0.98
2016-12-29T06:43:28.047Z,-0.97
2016-12-29T06:44:08.585Z,-0.99
2016-12-29T06:44:49.125Z,-0.95
2016-12-29T06:45:29.656Z,-0.94
2016-12-29T06:46:10.189Z,-0.91
2016-12-29T06:46:50.711Z,-0.86
2016-12-29T06:47:31.217Z,-0.92
2016-12-29T06:48:11.755Z,-0.94
2016-12-29T06:48:52.286Z,-0.97
2016-12-29T06:49:32.809Z,-0.86
2016-12-29T06:50:13.340Z,-0.82
2016-12-29T06:50:53.856Z,-0.99
2016-12-29T06:51:34.365Z,-0.91
2016-12-29T06:52:14.914Z,-0.85
2016-12-29T06:52:55.450Z,-0.94
2016-12-29T06:53:35.969Z,-0.89
2016-12-29T06:54:16.487Z,-0.98
2016-12-29T06:54:57.027Z,-0.92
2016-12-29T06:55:37.584Z,-0.97
2016-12-29T06:56:18.112Z,-0.91
2016-12-29T06:56:58.633Z,-0.79
2016-12-29T06:57:39.183Z,-0.94
2016-12-29T06:58:19.699Z,-0.94
2016-12-29T06:59:00.245Z,-0.95
2016-12-29T06:59:40.777Z,-0.91
2016-12-29T07:00:21.305Z,-0.91
2016-12-29T07:01:01.834Z,-0.95
2016-12-29T07:01:42.337Z,-0.89
2016-12-29T07:02:22.849Z,-0.92
2016-12-29T07:03:03.360Z,-0.97
2016-12-29T07:03:43.884Z,-0.89
2016-12-29T07:04:24.391Z,-0.89
2016-12-29T07:05:04.897Z,-0.95
2016-12-29T07:05:45.415Z,-0.92
2016-12-29T07:06:25.953Z,-0.98
2016-12-29T07:07:06.486Z,-0.91
2016-12-29T07:07:47.010Z,-0.97
2016-12-29T07:08:27.554Z,-0.95
2016-12-29T07:09:08.044Z,-0.95
2016-12-29T07:09:48.585Z,-0.94
2016-12-29T07:10:29.102Z,-0.82
2016-12-29T07:11:09.639Z,-0.97
2016-12-29T07:11:50.144Z,-0.91
2016-12-29T07:12:30.684Z,-0.98
2016-12-29T07:13:11.186Z,-0.94
2016-12-29T07:13:51.676Z,-0.94
2016-12-29T07:14:32.187Z,-0.91
2016-12-29T07:15:12.730Z,-0.97
2016-12-29T07:15:53.228Z,-0.92
2016-12-29T07:16:33.751Z,-0.91
2016-12-29T07:17:14.281Z,-0.83
2016-12-29T07:17:54.815Z,-0.91
2016-12-29T07:18:35.342Z,-0.91
2016-12-29T07:19:15.890Z,-0.85
2016-12-29T07:19:56.419Z,-0.98
2016-12-29T07:20:36.935Z,-0.86
2016-12-29T07:21:17.464Z,-0.86
2016-12-29T07:21:58.000Z,-0.97
2016-12-29T07:22:38.540Z,-0.95
2016-12-29T07:23:19.057Z,-0.95
2016-12-29T07:23:59.586Z,-0.91
2016-12-29T07:24:40.103Z,-0.92
2016-12-29T07:25:20.641Z,-0.92
2016-12-29T07:26:01.172Z,-0.91
2016-12-29T07:26:41.688Z,-0.91
2016-12-29T07:27:22.204Z,-0.94
2016-12-29T07:28:02.732Z,-0.95
2016-12-29T07:28:43.256Z,-0.79
2016-12-29T07:29:23.792Z,-0.82
2016-12-29T07:30:04.344Z,-0.95
2016-12-29T07:30:44.881Z,-0.92
2016-12-29T07:31:25.419Z,-0.94
2016-12-29T07:32:05.953Z,-0.92
2016-12-29T07:32:46.498Z,-0.86
2016-12-29T07:33:27.028Z,-0.86
2016-12-29T07:34:07.543Z,-0.75
2016-12-29T07:34:48.078Z,-0.82
2016-12-29T07:35:28.602Z,-0.85
2016-12-29T07:36:09.134Z,-0.83
2016-12-29T07:36:49.640Z,-0.91
2016-12-29T07:37:30.145Z,-0.91
2016-12-29T07:38:10.653Z,-0.82
2016-12-29T07:38:51.125Z,-0.8
2016-12-29T07:39:31.666Z,-0.85
2016-12-29T07:40:12.211Z,-0.86
2016-12-29T07:40:52.706Z,-0.79
2016-12-29T07:41:33.212Z,-0.82
2016-12-29T07:42:13.765Z,-0.79
2016-12-29T07:42:54.297Z,-0.86
2016-12-29T07:43:34.805Z,-0.85
2016-12-29T07:44:15.328Z,-0.79
2016-12-29T07:44:55.859Z,-0.85
2016-12-29T07:45:36.382Z,-0.85
2016-12-29T07:46:16.914Z,-0.85
2016-12-29T07:46:57.424Z,-0.85
2016-12-29T07:47:37.963Z,-0.83
2016-12-29T07:48:18.499Z,-0.82
2016-12-29T07:48:59.021Z,-0.86
2016-12-29T07:49:39.536Z,-0.91
2016-12-29T07:50:20.051Z,-0.85
2016-12-29T07:51:00.601Z,-0.85
2016-12-29T07:51:41.113Z,-0.82
2016-12-29T07:52:21.623Z,-0.8
2016-12-29T07:53:02.179Z,-0.82
2016-12-29T07:53:42.714Z,-0.8
2016-12-29T07:54:23.257Z,-0.83
2016-12-29T07:55:03.778Z,-0.85
2016-12-29T07:55:44.311Z,-0.82
2016-12-29T07:56:24.825Z,-0.79
2016-12-29T07:57:05.370Z,-0.79
2016-12-29T07:57:45.918Z,-0.83
2016-12-29T07:58:26.430Z,-0.79
2016-12-29T07:59:06.937Z,-0.78
2016-12-29T07:59:47.466Z,-0.82
2016-12-29T08:00:28.001Z,-0.76
2016-12-29T08:01:08.526Z,-0.76
2016-12-29T08:01:49.041Z,-0.72
2016-12-29T08:02:29.568Z,-0.78
2016-12-29T08:03:10.108Z,-0.72
2016-12-29T08:03:50.599Z,-0.75
2016-12-29T08:04:31.126Z,-0.76
2016-12-29T08:05:11.644Z,-0.76
2016-12-29T08:05:52.174Z,-0.82
2016-12-29T08:06:32.694Z,-0.75
2016-12-29T08:07:13.221Z,-0.79
2016-12-29T08:07:53.753Z,-0.79
2016-12-29T08:08:34.394Z,-0.73
2016-12-29T08:09:14.902Z,-0.73
2016-12-29T08:09:55.406Z,-0.69
2016-12-29T08:10:35.915Z,-0.69
2016-12-29T08:11:16.448Z,-0.73
2016-12-29T08:11:56.964Z,-0.65
2016-12-29T08:12:37.483Z,-0.7
2016-12-29T08:13:18.027Z,-0.64
2016-12-29T08:13:58.585Z,-0.67
2016-12-29T08:14:39.104Z,-0.6
2016-12-29T08:15:19.655Z,-0.61
2016-12-29T08:16:00.190Z,-0.62
2016-12-29T08:16:40.710Z,-0.62
2016-12-29T08:17:21.322Z,-0.65
2016-12-29T08:18:01.913Z,-0.64
2016-12-29T08:18:42.397Z,-0.52
2016-12-29T08:19:22.906Z,-0.67
2016-12-29T08:20:03.420Z,-0.55
2016-12-29T08:20:43.937Z,-0.52
2016-12-29T08:21:24.446Z,-0.55
2016-12-29T08:22:04.939Z,-0.57
2016-12-29T08:22:45.520Z,-0.58
2016-12-29T08:23:26.164Z,-0.64
2016-12-29T08:24:06.665Z,-0.46
2016-12-29T08:24:47.183Z,-0.62
2016-12-29T08:25:27.709Z,-0.6
2016-12-29T08:26:08.217Z,-0.51
2016-12-29T08:26:48.742Z,-0.49
2016-12-29T08:27:29.278Z,-0.51
2016-12-29T08:28:09.809Z,-0.51
2016-12-29T08:28:50.275Z,-0.51
2016-12-29T08:29:30.797Z,-0.49
2016-12-29T08:30:12.057Z,-0.49
2016-12-29T08:30:52.587Z,-0.55
2016-12-29T08:31:33.113Z,-0.47
2016-12-29T08:32:13.636Z,-0.47
2016-12-29T08:32:54.155Z,-0.43
2016-12-29T08:33:34.667Z,-0.46
2016-12-29T08:34:15.189Z,-0.52
2016-12-29T08:34:55.677Z,-0.42
2016-12-29T08:35:36.203Z,-0.4
2016-12-29T08:36:16.721Z,-0.46
2016-12-29T08:36:57.227Z,-0.37
2016-12-29T08:37:37.773Z,-0.37
2016-12-29T08:38:18.278Z,-0.43
2016-12-29T08:38:58.801Z,-0.43
2016-12-29T08:39:39.303Z,-0.37
2016-12-29T08:40:19.955Z,-0.33
2016-12-29T08:41:00.476Z,-0.34
2016-12-29T08:41:41.226Z,-0.29
2016-12-29T08:42:21.749Z,-0.29
2016-12-29T08:43:02.284Z,-0.28
2016-12-29T08:43:42.908Z,-0.31
2016-12-29T08:44:23.433Z,-0.33
2016-12-29T08:45:04.149Z,-0.25
2016-12-29T08:45:44.747Z,-0.25
2016-12-29T08:46:25.276Z,-0.25
2016-12-29T08:47:05.811Z,-0.31
2016-12-29T08:47:46.316Z,-0.25
2016-12-29T08:48:26.840Z,-0.28
2016-12-29T08:49:07.359Z,-0.21
2016-12-29T08:49:47.878Z,-0.19
2016-12-29T08:50:28.420Z,-0.22
2016-12-29T08:51:08.947Z,-0.18
2016-12-29T08:51:49.460Z,-0.18
2016-12-29T08:52:29.985Z,-0.18
2016-12-29T08:53:10.512Z,-0.19
2016-12-29T08:53:51.042Z,-0.16
2016-12-29T08:54:31.578Z,-0.19
2016-12-29T08:55:12.141Z,-0.26
2016-12-29T08:55:52.674Z,-0.19
2016-12-29T08:56:33.206Z,-0.16
2016-12-29T08:57:13.730Z,-0.1
2016-12-29T08:57:54.268Z,-0.18
2016-12-29T08:58:34.782Z,-0.14
2016-12-29T08:59:15.299Z,-0.14
2016-12-29T08:59:55.828Z,-0.11
2016-12-29T09:00:36.361Z,-0.08
2016-12-29T09:01:16.860Z,-0.08
2016-12-29T09:01:57.382Z,-0.15
2016-12-29T09:02:37.921Z,-0.08
2016-12-29T09:03:18.447Z,-0.01
2016-12-29T09:03:58.982Z,-0.03
2016-12-29T09:04:39.515Z,0.03
2016-12-29T09:05:20.047Z,0.02
2016-12-29T09:06:00.592Z,-0.03
2016-12-29T09:06:41.127Z,-0.04
2016-12-29T09:07:21.659Z,0.08
2016-12-29T09:08:02.200Z,-0.04
2016-12-29T09:08:42.728Z,-0.04
2016-12-29T09:09:23.252Z,0.07
2016-12-29T09:10:03.787Z,0.14